sensor_id;sensor_type;location;lat;lon;timestamp;temperature;humidity
15160;DHT22;7680;48.800;9.680;2023-06-14T00:01:41;13.40;94.70
15160;DHT22;7680;48.800;9.680;2023-06-14T00:04:17;13.40;94.90
15160;DHT22;7680;48.800;9.680;2023-06-14T00:06:55;13.30;94.40
15160;DHT22;7680;48.800;9.680;2023-06-14T00:09:28;13.20;94.50
15160;DHT22;7680;48.800;9.680;2023-06-14T00:12:02;13.30;94.50
15160;DHT22;7680;48.800;9.680;2023-06-14T00:14:37;13.20;95.60
15160;DHT22;7680;48.800;9.680;2023-06-14T00:17:10;13.10;96.00
15160;DHT22;7680;48.800;9.680;2023-06-14T00:19:44;13.10;96.00
15160;DHT22;7680;48.800;9.680;2023-06-14T00:22:18;13.10;96.10
15160;DHT22;7680;48.800;9.680;2023-06-14T00:24:53;13.10;95.80
15160;DHT22;7680;48.800;9.680;2023-06-14T00:27:27;13.20;95.00
15160;DHT22;7680;48.800;9.680;2023-06-14T00:30:00;13.30;95.10
15160;DHT22;7680;48.800;9.680;2023-06-14T00:32:33;13.20;95.30
15160;DHT22;7680;48.800;9.680;2023-06-14T00:35:07;13.20;95.50
15160;DHT22;7680;48.800;9.680;2023-06-14T00:37:41;13.20;95.80
15160;DHT22;7680;48.800;9.680;2023-06-14T00:40:14;13.10;96.00
15160;DHT22;7680;48.800;9.680;2023-06-14T00:42:48;13.10;96.20
15160;DHT22;7680;48.800;9.680;2023-06-14T00:45:21;13.10;96.70
15160;DHT22;7680;48.800;9.680;2023-06-14T00:47:55;13.00;96.60
15160;DHT22;7680;48.800;9.680;2023-06-14T00:50:29;12.90;96.70
15160;DHT22;7680;48.800;9.680;2023-06-14T00:53:05;12.80;97.10
15160;DHT22;7680;48.800;9.680;2023-06-14T00:55:38;12.80;97.30
15160;DHT22;7680;48.800;9.680;2023-06-14T00:58:11;12.70;97.40
15160;DHT22;7680;48.800;9.680;2023-06-14T01:00:45;12.70;97.80
15160;DHT22;7680;48.800;9.680;2023-06-14T01:03:18;12.70;97.70
15160;DHT22;7680;48.800;9.680;2023-06-14T01:06:02;12.70;97.50
15160;DHT22;7680;48.800;9.680;2023-06-14T01:08:51;12.80;97.80
15160;DHT22;7680;48.800;9.680;2023-06-14T01:11:35;12.70;97.60
15160;DHT22;7680;48.800;9.680;2023-06-14T01:14:11;12.60;98.00
15160;DHT22;7680;48.800;9.680;2023-06-14T01:16:46;12.60;98.10
15160;DHT22;7680;48.800;9.680;2023-06-14T01:19:22;12.50;98.40
15160;DHT22;7680;48.800;9.680;2023-06-14T01:22:00;12.50;98.40
15160;DHT22;7680;48.800;9.680;2023-06-14T01:24:35;12.50;98.60
15160;DHT22;7680;48.800;9.680;2023-06-14T01:27:08;12.40;98.60
15160;DHT22;7680;48.800;9.680;2023-06-14T01:29:42;12.40;98.70
15160;DHT22;7680;48.800;9.680;2023-06-14T01:32:18;12.40;99.00
15160;DHT22;7680;48.800;9.680;2023-06-14T01:34:51;12.30;99.00
15160;DHT22;7680;48.800;9.680;2023-06-14T01:37:25;12.30;99.20
15160;DHT22;7680;48.800;9.680;2023-06-14T01:39:59;12.30;99.30
15160;DHT22;7680;48.800;9.680;2023-06-14T01:42:34;12.30;99.70
15160;DHT22;7680;48.800;9.680;2023-06-14T01:45:09;12.10;99.30
15160;DHT22;7680;48.800;9.680;2023-06-14T01:47:43;12.10;99.70
15160;DHT22;7680;48.800;9.680;2023-06-14T01:50:19;12.00;99.90
15160;DHT22;7680;48.800;9.680;2023-06-14T01:52:53;12.00;99.90
15160;DHT22;7680;48.800;9.680;2023-06-14T01:55:27;12.00;99.90
15160;DHT22;7680;48.800;9.680;2023-06-14T01:58:00;12.00;99.90
15160;DHT22;7680;48.800;9.680;2023-06-14T02:00:34;11.90;99.90
15160;DHT22;7680;48.800;9.680;2023-06-14T02:03:07;11.90;99.90
15160;DHT22;7680;48.800;9.680;2023-06-14T02:05:40;11.80;99.90
15160;DHT22;7680;48.800;9.680;2023-06-14T02:08:13;11.70;99.90
15160;DHT22;7680;48.800;9.680;2023-06-14T02:10:48;11.70;99.90
15160;DHT22;7680;48.800;9.680;2023-06-14T02:13:21;11.70;99.90
15160;DHT22;7680;48.800;9.680;2023-06-14T02:15:54;11.70;99.90
15160;DHT22;7680;48.800;9.680;2023-06-14T02:18:27;11.70;99.90
15160;DHT22;7680;48.800;9.680;2023-06-14T02:21:00;11.60;99.90
15160;DHT22;7680;48.800;9.680;2023-06-14T02:23:33;11.50;99.90
15160;DHT22;7680;48.800;9.680;2023-06-14T02:26:08;11.50;99.90
15160;DHT22;7680;48.800;9.680;2023-06-14T02:28:41;11.40;99.90
15160;DHT22;7680;48.800;9.680;2023-06-14T02:31:14;11.50;99.90
15160;DHT22;7680;48.800;9.680;2023-06-14T02:33:48;11.50;99.90
15160;DHT22;7680;48.800;9.680;2023-06-14T02:36:21;11.40;99.90
15160;DHT22;7680;48.800;9.680;2023-06-14T02:38:54;11.40;99.90
15160;DHT22;7680;48.800;9.680;2023-06-14T02:41:30;11.40;99.90
15160;DHT22;7680;48.800;9.680;2023-06-14T02:44:03;11.20;99.90
15160;DHT22;7680;48.800;9.680;2023-06-14T02:46:37;11.20;99.90
15160;DHT22;7680;48.800;9.680;2023-06-14T02:49:10;11.20;99.90
15160;DHT22;7680;48.800;9.680;2023-06-14T02:51:43;11.20;99.90
15160;DHT22;7680;48.800;9.680;2023-06-14T02:54:16;11.20;99.90
15160;DHT22;7680;48.800;9.680;2023-06-14T02:56:51;11.20;99.90
15160;DHT22;7680;48.800;9.680;2023-06-14T02:59:24;11.20;99.90
15160;DHT22;7680;48.800;9.680;2023-06-14T03:01:58;11.10;99.90
15160;DHT22;7680;48.800;9.680;2023-06-14T03:04:31;11.10;99.90
15160;DHT22;7680;48.800;9.680;2023-06-14T03:07:09;11.10;99.90
15160;DHT22;7680;48.800;9.680;2023-06-14T03:09:42;11.10;99.90
15160;DHT22;7680;48.800;9.680;2023-06-14T03:12:17;11.10;99.90
15160;DHT22;7680;48.800;9.680;2023-06-14T03:14:50;11.10;99.90
15160;DHT22;7680;48.800;9.680;2023-06-14T03:17:23;11.10;99.90
15160;DHT22;7680;48.800;9.680;2023-06-14T03:20:01;11.20;99.90
15160;DHT22;7680;48.800;9.680;2023-06-14T03:22:35;11.20;99.90
15160;DHT22;7680;48.800;9.680;2023-06-14T03:25:09;11.20;99.90
15160;DHT22;7680;48.800;9.680;2023-06-14T03:27:43;11.20;99.90
15160;DHT22;7680;48.800;9.680;2023-06-14T03:30:17;11.20;99.90
15160;DHT22;7680;48.800;9.680;2023-06-14T03:32:50;11.20;99.90
15160;DHT22;7680;48.800;9.680;2023-06-14T03:35:24;11.30;99.90
15160;DHT22;7680;48.800;9.680;2023-06-14T03:37:57;11.30;99.90
15160;DHT22;7680;48.800;9.680;2023-06-14T03:40:31;11.30;99.90
15160;DHT22;7680;48.800;9.680;2023-06-14T03:43:05;11.30;99.90
15160;DHT22;7680;48.800;9.680;2023-06-14T03:45:38;11.20;99.90
15160;DHT22;7680;48.800;9.680;2023-06-14T03:48:11;11.20;99.90
15160;DHT22;7680;48.800;9.680;2023-06-14T03:50:45;11.10;99.90
15160;DHT22;7680;48.800;9.680;2023-06-14T03:53:19;11.00;99.90
15160;DHT22;7680;48.800;9.680;2023-06-14T03:55:55;11.00;99.90
15160;DHT22;7680;48.800;9.680;2023-06-14T03:58:30;11.00;99.90
15160;DHT22;7680;48.800;9.680;2023-06-14T04:01:03;11.00;99.90
15160;DHT22;7680;48.800;9.680;2023-06-14T04:03:38;11.10;99.90
15160;DHT22;7680;48.800;9.680;2023-06-14T04:06:12;11.20;99.90
15160;DHT22;7680;48.800;9.680;2023-06-14T04:08:51;11.20;99.90
15160;DHT22;7680;48.800;9.680;2023-06-14T04:11:25;11.10;99.90
15160;DHT22;7680;48.800;9.680;2023-06-14T04:14:02;11.20;99.90
15160;DHT22;7680;48.800;9.680;2023-06-14T04:16:35;11.20;99.90
15160;DHT22;7680;48.800;9.680;2023-06-14T04:19:08;11.20;99.90
15160;DHT22;7680;48.800;9.680;2023-06-14T04:21:42;11.20;99.90
15160;DHT22;7680;48.800;9.680;2023-06-14T04:24:15;11.20;99.90
15160;DHT22;7680;48.800;9.680;2023-06-14T04:26:49;11.30;99.90
15160;DHT22;7680;48.800;9.680;2023-06-14T04:29:24;11.20;99.90
15160;DHT22;7680;48.800;9.680;2023-06-14T04:31:58;11.30;99.90
15160;DHT22;7680;48.800;9.680;2023-06-14T04:34:32;11.40;99.90
15160;DHT22;7680;48.800;9.680;2023-06-14T04:37:06;11.30;99.90
15160;DHT22;7680;48.800;9.680;2023-06-14T04:39:41;11.40;99.90
15160;DHT22;7680;48.800;9.680;2023-06-14T04:42:14;11.40;99.90
15160;DHT22;7680;48.800;9.680;2023-06-14T04:44:49;11.50;99.90
15160;DHT22;7680;48.800;9.680;2023-06-14T04:47:23;11.90;99.90
15160;DHT22;7680;48.800;9.680;2023-06-14T04:50:01;12.50;99.90
15160;DHT22;7680;48.800;9.680;2023-06-14T04:52:35;13.20;99.90
15160;DHT22;7680;48.800;9.680;2023-06-14T04:55:09;13.90;99.00
15160;DHT22;7680;48.800;9.680;2023-06-14T04:57:42;14.20;97.60
15160;DHT22;7680;48.800;9.680;2023-06-14T05:00:17;14.50;96.90
15160;DHT22;7680;48.800;9.680;2023-06-14T05:02:51;14.90;96.00
15160;DHT22;7680;48.800;9.680;2023-06-14T05:05:25;15.20;95.10
15160;DHT22;7680;48.800;9.680;2023-06-14T05:07:58;15.50;94.10
15160;DHT22;7680;48.800;9.680;2023-06-14T05:10:31;16.10;92.90
15160;DHT22;7680;48.800;9.680;2023-06-14T05:13:06;16.30;92.10
15160;DHT22;7680;48.800;9.680;2023-06-14T05:15:41;16.70;91.60
15160;DHT22;7680;48.800;9.680;2023-06-14T05:18:14;17.10;90.60
15160;DHT22;7680;48.800;9.680;2023-06-14T05:20:48;17.30;89.20
15160;DHT22;7680;48.800;9.680;2023-06-14T05:23:21;17.70;88.30
15160;DHT22;7680;48.800;9.680;2023-06-14T05:25:54;17.70;86.80
15160;DHT22;7680;48.800;9.680;2023-06-14T05:28:28;18.10;85.50
15160;DHT22;7680;48.800;9.680;2023-06-14T05:31:03;17.90;85.30
15160;DHT22;7680;48.800;9.680;2023-06-14T05:33:37;17.90;85.80
15160;DHT22;7680;48.800;9.680;2023-06-14T05:36:10;18.50;84.30
15160;DHT22;7680;48.800;9.680;2023-06-14T05:38:43;19.00;83.00
15160;DHT22;7680;48.800;9.680;2023-06-14T05:41:17;18.50;82.50
15160;DHT22;7680;48.800;9.680;2023-06-14T05:43:53;18.50;82.90
15160;DHT22;7680;48.800;9.680;2023-06-14T05:46:28;18.60;83.20
15160;DHT22;7680;48.800;9.680;2023-06-14T05:49:01;19.20;82.20
15160;DHT22;7680;48.800;9.680;2023-06-14T05:51:35;19.40;81.20
15160;DHT22;7680;48.800;9.680;2023-06-14T05:54:08;19.30;80.20
15160;DHT22;7680;48.800;9.680;2023-06-14T05:56:41;19.50;80.00
15160;DHT22;7680;48.800;9.680;2023-06-14T05:59:14;19.50;79.50
15160;DHT22;7680;48.800;9.680;2023-06-14T06:01:49;19.80;78.90
15160;DHT22;7680;48.800;9.680;2023-06-14T06:04:23;20.10;79.40
15160;DHT22;7680;48.800;9.680;2023-06-14T06:06:57;20.20;78.50
15160;DHT22;7680;48.800;9.680;2023-06-14T06:09:30;20.50;77.30
15160;DHT22;7680;48.800;9.680;2023-06-14T06:12:05;21.00;76.70
15160;DHT22;7680;48.800;9.680;2023-06-14T06:14:39;20.90;76.50
15160;DHT22;7680;48.800;9.680;2023-06-14T06:17:14;21.30;75.90
15160;DHT22;7680;48.800;9.680;2023-06-14T06:19:47;21.60;75.20
15160;DHT22;7680;48.800;9.680;2023-06-14T06:22:20;22.00;73.70
15160;DHT22;7680;48.800;9.680;2023-06-14T06:24:53;21.80;74.50
15160;DHT22;7680;48.800;9.680;2023-06-14T06:27:27;22.20;74.10
15160;DHT22;7680;48.800;9.680;2023-06-14T06:30:00;22.30;71.60
15160;DHT22;7680;48.800;9.680;2023-06-14T06:32:34;22.50;71.60
15160;DHT22;7680;48.800;9.680;2023-06-14T06:35:07;22.70;71.00
15160;DHT22;7680;48.800;9.680;2023-06-14T06:37:43;22.90;70.40
15160;DHT22;7680;48.800;9.680;2023-06-14T06:40:16;22.90;70.50
15160;DHT22;7680;48.800;9.680;2023-06-14T06:42:49;22.90;70.80
15160;DHT22;7680;48.800;9.680;2023-06-14T06:45:22;23.30;69.30
15160;DHT22;7680;48.800;9.680;2023-06-14T06:47:58;23.30;69.40
15160;DHT22;7680;48.800;9.680;2023-06-14T06:50:31;23.60;68.10
15160;DHT22;7680;48.800;9.680;2023-06-14T06:53:05;24.10;66.40
15160;DHT22;7680;48.800;9.680;2023-06-14T06:55:38;24.00;65.50
15160;DHT22;7680;48.800;9.680;2023-06-14T06:58:12;24.40;65.90
15160;DHT22;7680;48.800;9.680;2023-06-14T07:00:46;25.30;63.60
15160;DHT22;7680;48.800;9.680;2023-06-14T07:03:20;25.50;60.90
15160;DHT22;7680;48.800;9.680;2023-06-14T07:05:53;24.90;61.50
15160;DHT22;7680;48.800;9.680;2023-06-14T07:08:27;24.30;62.70
15160;DHT22;7680;48.800;9.680;2023-06-14T07:11:00;24.70;62.50
15160;DHT22;7680;48.800;9.680;2023-06-14T07:13:33;25.10;61.30
15160;DHT22;7680;48.800;9.680;2023-06-14T07:16:07;26.00;60.20
15160;DHT22;7680;48.800;9.680;2023-06-14T07:18:41;26.10;59.40
15160;DHT22;7680;48.800;9.680;2023-06-14T07:21:14;25.90;59.20
15160;DHT22;7680;48.800;9.680;2023-06-14T07:23:47;25.90;59.80
15160;DHT22;7680;48.800;9.680;2023-06-14T07:26:21;26.10;60.30
15160;DHT22;7680;48.800;9.680;2023-06-14T07:28:54;26.40;59.00
15160;DHT22;7680;48.800;9.680;2023-06-14T07:31:27;26.30;59.80
15160;DHT22;7680;48.800;9.680;2023-06-14T07:34:01;26.30;59.20
15160;DHT22;7680;48.800;9.680;2023-06-14T07:36:35;25.90;59.20
15160;DHT22;7680;48.800;9.680;2023-06-14T07:39:08;26.30;58.80
15160;DHT22;7680;48.800;9.680;2023-06-14T07:41:41;26.60;59.00
15160;DHT22;7680;48.800;9.680;2023-06-14T07:44:14;26.90;58.40
15160;DHT22;7680;48.800;9.680;2023-06-14T07:46:47;26.80;57.90
15160;DHT22;7680;48.800;9.680;2023-06-14T07:49:23;26.70;57.80
15160;DHT22;7680;48.800;9.680;2023-06-14T07:51:56;26.70;57.30
15160;DHT22;7680;48.800;9.680;2023-06-14T07:54:30;26.10;58.50
15160;DHT22;7680;48.800;9.680;2023-06-14T07:57:04;25.90;58.70
15160;DHT22;7680;48.800;9.680;2023-06-14T07:59:38;26.10;58.20
15160;DHT22;7680;48.800;9.680;2023-06-14T08:02:11;26.70;57.70
15160;DHT22;7680;48.800;9.680;2023-06-14T08:04:45;26.50;57.40
15160;DHT22;7680;48.800;9.680;2023-06-14T08:07:20;26.40;57.60
15160;DHT22;7680;48.800;9.680;2023-06-14T08:09:53;26.60;58.00
15160;DHT22;7680;48.800;9.680;2023-06-14T08:12:26;26.80;57.50
15160;DHT22;7680;48.800;9.680;2023-06-14T08:14:59;26.40;57.90
15160;DHT22;7680;48.800;9.680;2023-06-14T08:17:39;27.10;58.00
15160;DHT22;7680;48.800;9.680;2023-06-14T08:20:14;26.90;57.50
15160;DHT22;7680;48.800;9.680;2023-06-14T08:22:48;27.30;56.40
15160;DHT22;7680;48.800;9.680;2023-06-14T08:25:21;26.80;57.80
15160;DHT22;7680;48.800;9.680;2023-06-14T08:27:54;26.80;57.40
15160;DHT22;7680;48.800;9.680;2023-06-14T08:30:28;27.00;58.50
15160;DHT22;7680;48.800;9.680;2023-06-14T08:33:01;26.60;57.30
15160;DHT22;7680;48.800;9.680;2023-06-14T08:35:49;26.00;58.40
15160;DHT22;7680;48.800;9.680;2023-06-14T08:38:22;26.10;58.50
15160;DHT22;7680;48.800;9.680;2023-06-14T08:40:57;26.40;58.90
15160;DHT22;7680;48.800;9.680;2023-06-14T08:43:31;26.50;57.60
15160;DHT22;7680;48.800;9.680;2023-06-14T08:46:06;26.80;57.10
15160;DHT22;7680;48.800;9.680;2023-06-14T08:48:43;26.40;57.30
15160;DHT22;7680;48.800;9.680;2023-06-14T08:51:19;25.70;58.10
15160;DHT22;7680;48.800;9.680;2023-06-14T08:53:55;25.80;57.70
15160;DHT22;7680;48.800;9.680;2023-06-14T08:56:30;26.20;59.40
15160;DHT22;7680;48.800;9.680;2023-06-14T08:59:06;25.80;59.50
15160;DHT22;7680;48.800;9.680;2023-06-14T09:01:40;25.90;59.60
15160;DHT22;7680;48.800;9.680;2023-06-14T09:04:30;25.40;59.20
15160;DHT22;7680;48.800;9.680;2023-06-14T09:07:05;25.90;59.00
15160;DHT22;7680;48.800;9.680;2023-06-14T09:09:39;26.00;59.00
15160;DHT22;7680;48.800;9.680;2023-06-14T09:12:33;26.30;58.30
15160;DHT22;7680;48.800;9.680;2023-06-14T09:15:07;26.30;58.50
15160;DHT22;7680;48.800;9.680;2023-06-14T09:17:42;26.20;58.30
15160;DHT22;7680;48.800;9.680;2023-06-14T09:20:15;26.30;58.90
15160;DHT22;7680;48.800;9.680;2023-06-14T09:22:53;26.50;57.70
15160;DHT22;7680;48.800;9.680;2023-06-14T09:25:26;25.70;58.30
15160;DHT22;7680;48.800;9.680;2023-06-14T09:28:11;25.70;58.00
15160;DHT22;7680;48.800;9.680;2023-06-14T09:30:44;25.90;57.00
15160;DHT22;7680;48.800;9.680;2023-06-14T09:33:17;26.00;57.00
15160;DHT22;7680;48.800;9.680;2023-06-14T09:35:54;25.70;57.90
15160;DHT22;7680;48.800;9.680;2023-06-14T09:38:28;25.90;57.90
15160;DHT22;7680;48.800;9.680;2023-06-14T09:41:03;25.90;57.80
15160;DHT22;7680;48.800;9.680;2023-06-14T09:43:38;25.90;57.60
15160;DHT22;7680;48.800;9.680;2023-06-14T09:46:11;26.20;58.00
15160;DHT22;7680;48.800;9.680;2023-06-14T09:48:44;26.80;57.70
15160;DHT22;7680;48.800;9.680;2023-06-14T09:51:18;27.50;56.10
15160;DHT22;7680;48.800;9.680;2023-06-14T09:53:59;27.60;54.60
15160;DHT22;7680;48.800;9.680;2023-06-14T09:56:35;27.70;55.90
15160;DHT22;7680;48.800;9.680;2023-06-14T09:59:10;27.70;56.00
15160;DHT22;7680;48.800;9.680;2023-06-14T10:01:46;27.60;56.00
15160;DHT22;7680;48.800;9.680;2023-06-14T10:04:21;27.40;56.00
15160;DHT22;7680;48.800;9.680;2023-06-14T10:06:55;27.60;56.00
15160;DHT22;7680;48.800;9.680;2023-06-14T10:09:30;27.60;54.80
15160;DHT22;7680;48.800;9.680;2023-06-14T10:12:04;28.10;53.70
15160;DHT22;7680;48.800;9.680;2023-06-14T10:14:38;28.20;53.50
15160;DHT22;7680;48.800;9.680;2023-06-14T10:17:20;27.40;53.40
15160;DHT22;7680;48.800;9.680;2023-06-14T10:20:15;27.50;54.30
15160;DHT22;7680;48.800;9.680;2023-06-14T10:22:56;27.30;53.80
15160;DHT22;7680;48.800;9.680;2023-06-14T10:25:34;27.50;53.90
15160;DHT22;7680;48.800;9.680;2023-06-14T10:28:18;27.30;53.60
15160;DHT22;7680;48.800;9.680;2023-06-14T10:31:07;26.70;53.70
15160;DHT22;7680;48.800;9.680;2023-06-14T10:33:49;26.30;54.20
15160;DHT22;7680;48.800;9.680;2023-06-14T10:36:27;26.00;56.70
15160;DHT22;7680;48.800;9.680;2023-06-14T10:39:06;26.00;57.40
15160;DHT22;7680;48.800;9.680;2023-06-14T10:41:41;26.00;58.20
15160;DHT22;7680;48.800;9.680;2023-06-14T10:44:41;26.00;58.20
15160;DHT22;7680;48.800;9.680;2023-06-14T10:47:24;26.00;58.20
15160;DHT22;7680;48.800;9.680;2023-06-14T10:50:04;26.10;58.30
15160;DHT22;7680;48.800;9.680;2023-06-14T10:52:39;25.90;58.60
15160;DHT22;7680;48.800;9.680;2023-06-14T10:55:17;25.70;58.60
15160;DHT22;7680;48.800;9.680;2023-06-14T10:57:54;25.70;58.90
15160;DHT22;7680;48.800;9.680;2023-06-14T11:00:29;25.90;57.50
15160;DHT22;7680;48.800;9.680;2023-06-14T11:06:30;26.10;56.90
15160;DHT22;7680;48.800;9.680;2023-06-14T11:12:28;26.10;58.90
15160;DHT22;7680;48.800;9.680;2023-06-14T11:15:07;26.40;58.30
15160;DHT22;7680;48.800;9.680;2023-06-14T11:17:50;26.60;57.90
15160;DHT22;7680;48.800;9.680;2023-06-14T11:20:26;26.50;57.20
15160;DHT22;7680;48.800;9.680;2023-06-14T11:23:00;26.30;58.30
15160;DHT22;7680;48.800;9.680;2023-06-14T11:25:33;26.10;57.00
15160;DHT22;7680;48.800;9.680;2023-06-14T11:28:06;25.70;56.10
15160;DHT22;7680;48.800;9.680;2023-06-14T11:30:41;25.70;57.70
15160;DHT22;7680;48.800;9.680;2023-06-14T11:33:17;25.90;57.60
15160;DHT22;7680;48.800;9.680;2023-06-14T11:35:51;26.10;57.00
15160;DHT22;7680;48.800;9.680;2023-06-14T11:38:25;26.00;56.40
15160;DHT22;7680;48.800;9.680;2023-06-14T11:40:59;26.00;56.20
15160;DHT22;7680;48.800;9.680;2023-06-14T11:43:33;26.20;56.60
15160;DHT22;7680;48.800;9.680;2023-06-14T11:46:13;26.40;54.90
15160;DHT22;7680;48.800;9.680;2023-06-14T11:48:48;26.40;55.70
15160;DHT22;7680;48.800;9.680;2023-06-14T11:51:21;26.30;55.80
15160;DHT22;7680;48.800;9.680;2023-06-14T11:53:54;26.20;56.00
15160;DHT22;7680;48.800;9.680;2023-06-14T11:56:28;25.90;54.90
15160;DHT22;7680;48.800;9.680;2023-06-14T11:59:02;25.70;55.10
15160;DHT22;7680;48.800;9.680;2023-06-14T12:01:39;25.60;54.70
15160;DHT22;7680;48.800;9.680;2023-06-14T12:04:23;25.60;54.70
15160;DHT22;7680;48.800;9.680;2023-06-14T12:07:03;25.80;55.20
15160;DHT22;7680;48.800;9.680;2023-06-14T12:10:04;25.70;55.00
15160;DHT22;7680;48.800;9.680;2023-06-14T12:12:40;25.90;55.80
15160;DHT22;7680;48.800;9.680;2023-06-14T12:15:13;25.50;55.70
15160;DHT22;7680;48.800;9.680;2023-06-14T12:17:48;25.40;55.50
15160;DHT22;7680;48.800;9.680;2023-06-14T12:20:22;25.60;56.00
15160;DHT22;7680;48.800;9.680;2023-06-14T12:22:57;25.70;55.00
15160;DHT22;7680;48.800;9.680;2023-06-14T12:25:33;25.70;55.00
15160;DHT22;7680;48.800;9.680;2023-06-14T12:28:08;26.10;55.20
15160;DHT22;7680;48.800;9.680;2023-06-14T12:30:41;26.20;55.20
15160;DHT22;7680;48.800;9.680;2023-06-14T12:33:16;26.20;54.00
15160;DHT22;7680;48.800;9.680;2023-06-14T12:35:50;26.30;55.80
15160;DHT22;7680;48.800;9.680;2023-06-14T12:38:24;26.40;54.30
15160;DHT22;7680;48.800;9.680;2023-06-14T12:40:57;26.30;54.50
15160;DHT22;7680;48.800;9.680;2023-06-14T12:43:30;26.30;54.10
15160;DHT22;7680;48.800;9.680;2023-06-14T12:46:03;26.20;53.90
15160;DHT22;7680;48.800;9.680;2023-06-14T12:48:37;26.10;54.00
15160;DHT22;7680;48.800;9.680;2023-06-14T12:51:11;25.90;54.30
15160;DHT22;7680;48.800;9.680;2023-06-14T12:53:44;26.10;54.60
15160;DHT22;7680;48.800;9.680;2023-06-14T12:56:17;25.80;55.30
15160;DHT22;7680;48.800;9.680;2023-06-14T12:58:53;25.60;55.70
15160;DHT22;7680;48.800;9.680;2023-06-14T13:01:26;25.40;55.00
15160;DHT22;7680;48.800;9.680;2023-06-14T13:04:01;25.30;54.70
15160;DHT22;7680;48.800;9.680;2023-06-14T13:06:34;25.10;55.40
15160;DHT22;7680;48.800;9.680;2023-06-14T13:09:07;25.10;54.80
15160;DHT22;7680;48.800;9.680;2023-06-14T13:11:41;25.00;55.40
15160;DHT22;7680;48.800;9.680;2023-06-14T13:14:17;24.90;58.50
15160;DHT22;7680;48.800;9.680;2023-06-14T13:16:57;24.80;56.50
15160;DHT22;7680;48.800;9.680;2023-06-14T13:19:31;24.80;56.60
15160;DHT22;7680;48.800;9.680;2023-06-14T13:22:04;24.80;56.70
15160;DHT22;7680;48.800;9.680;2023-06-14T13:24:39;24.90;56.90
15160;DHT22;7680;48.800;9.680;2023-06-14T13:27:12;24.80;56.40
15160;DHT22;7680;48.800;9.680;2023-06-14T13:29:46;24.90;56.70
15160;DHT22;7680;48.800;9.680;2023-06-14T13:32:20;25.00;55.60
15160;DHT22;7680;48.800;9.680;2023-06-14T13:34:56;24.80;55.50
15160;DHT22;7680;48.800;9.680;2023-06-14T13:37:29;24.80;55.50
15160;DHT22;7680;48.800;9.680;2023-06-14T13:40:02;24.70;56.50
15160;DHT22;7680;48.800;9.680;2023-06-14T13:42:37;24.80;56.90
15160;DHT22;7680;48.800;9.680;2023-06-14T13:45:11;24.90;57.00
15160;DHT22;7680;48.800;9.680;2023-06-14T13:47:45;25.10;56.80
15160;DHT22;7680;48.800;9.680;2023-06-14T13:50:21;25.30;56.00
15160;DHT22;7680;48.800;9.680;2023-06-14T13:52:55;25.50;56.30
15160;DHT22;7680;48.800;9.680;2023-06-14T13:55:28;25.50;56.10
15160;DHT22;7680;48.800;9.680;2023-06-14T13:58:01;25.70;55.70
15160;DHT22;7680;48.800;9.680;2023-06-14T14:00:34;25.80;55.40
15160;DHT22;7680;48.800;9.680;2023-06-14T14:03:11;25.80;54.30
15160;DHT22;7680;48.800;9.680;2023-06-14T14:05:46;25.80;54.20
15160;DHT22;7680;48.800;9.680;2023-06-14T14:08:19;25.60;53.70
15160;DHT22;7680;48.800;9.680;2023-06-14T14:10:52;25.50;54.50
15160;DHT22;7680;48.800;9.680;2023-06-14T14:13:26;25.60;54.50
15160;DHT22;7680;48.800;9.680;2023-06-14T14:15:59;25.70;53.90
15160;DHT22;7680;48.800;9.680;2023-06-14T14:18:32;25.90;53.90
15160;DHT22;7680;48.800;9.680;2023-06-14T14:21:07;25.70;54.10
15160;DHT22;7680;48.800;9.680;2023-06-14T14:23:41;25.60;54.40
15160;DHT22;7680;48.800;9.680;2023-06-14T14:26:14;25.60;53.70
15160;DHT22;7680;48.800;9.680;2023-06-14T14:28:47;25.50;53.50
15160;DHT22;7680;48.800;9.680;2023-06-14T14:31:21;25.50;53.40
15160;DHT22;7680;48.800;9.680;2023-06-14T14:33:54;25.60;54.20
15160;DHT22;7680;48.800;9.680;2023-06-14T14:36:28;25.40;54.40
15160;DHT22;7680;48.800;9.680;2023-06-14T14:39:02;25.30;54.30
15160;DHT22;7680;48.800;9.680;2023-06-14T14:41:35;25.20;54.30
15160;DHT22;7680;48.800;9.680;2023-06-14T14:44:13;25.30;55.70
15160;DHT22;7680;48.800;9.680;2023-06-14T14:46:46;25.40;54.80
15160;DHT22;7680;48.800;9.680;2023-06-14T14:49:19;25.50;54.10
15160;DHT22;7680;48.800;9.680;2023-06-14T14:51:54;25.60;54.00
15160;DHT22;7680;48.800;9.680;2023-06-14T14:54:36;25.60;53.90
15160;DHT22;7680;48.800;9.680;2023-06-14T14:57:09;25.60;54.90
15160;DHT22;7680;48.800;9.680;2023-06-14T14:59:42;25.50;54.90
15160;DHT22;7680;48.800;9.680;2023-06-14T15:02:15;25.50;55.90
15160;DHT22;7680;48.800;9.680;2023-06-14T15:04:48;25.20;55.90
15160;DHT22;7680;48.800;9.680;2023-06-14T15:07:23;25.10;56.20
15160;DHT22;7680;48.800;9.680;2023-06-14T15:09:56;25.10;56.50
15160;DHT22;7680;48.800;9.680;2023-06-14T15:12:29;25.10;56.10
15160;DHT22;7680;48.800;9.680;2023-06-14T15:15:03;25.00;56.60
15160;DHT22;7680;48.800;9.680;2023-06-14T15:17:36;25.10;56.10
15160;DHT22;7680;48.800;9.680;2023-06-14T15:20:10;25.10;55.90
15160;DHT22;7680;48.800;9.680;2023-06-14T15:22:47;25.00;55.90
15160;DHT22;7680;48.800;9.680;2023-06-14T15:25:21;24.90;56.10
15160;DHT22;7680;48.800;9.680;2023-06-14T15:27:54;24.80;56.80
15160;DHT22;7680;48.800;9.680;2023-06-14T15:30:28;24.70;57.00
15160;DHT22;7680;48.800;9.680;2023-06-14T15:33:01;24.60;57.00
15160;DHT22;7680;48.800;9.680;2023-06-14T15:35:34;24.70;57.10
15160;DHT22;7680;48.800;9.680;2023-06-14T15:38:12;24.90;57.00
15160;DHT22;7680;48.800;9.680;2023-06-14T15:40:45;24.80;56.60
15160;DHT22;7680;48.800;9.680;2023-06-14T15:43:21;24.60;57.00
15160;DHT22;7680;48.800;9.680;2023-06-14T15:45:55;24.50;57.20
15160;DHT22;7680;48.800;9.680;2023-06-14T15:48:28;24.30;57.70
15160;DHT22;7680;48.800;9.680;2023-06-14T15:51:02;24.10;57.60
15160;DHT22;7680;48.800;9.680;2023-06-14T15:53:36;24.10;57.30
15160;DHT22;7680;48.800;9.680;2023-06-14T15:56:09;23.90;57.80
15160;DHT22;7680;48.800;9.680;2023-06-14T15:58:42;23.90;57.70
15160;DHT22;7680;48.800;9.680;2023-06-14T16:01:16;24.10;57.60
15160;DHT22;7680;48.800;9.680;2023-06-14T16:03:49;24.00;57.90
15160;DHT22;7680;48.800;9.680;2023-06-14T16:06:22;24.00;58.40
15160;DHT22;7680;48.800;9.680;2023-06-14T16:08:56;24.00;58.50
15160;DHT22;7680;48.800;9.680;2023-06-14T16:11:29;24.00;58.40
15160;DHT22;7680;48.800;9.680;2023-06-14T16:14:03;24.00;58.70
15160;DHT22;7680;48.800;9.680;2023-06-14T16:16:36;24.00;58.60
15160;DHT22;7680;48.800;9.680;2023-06-14T16:19:09;24.10;58.00
15160;DHT22;7680;48.800;9.680;2023-06-14T16:21:42;24.10;58.10
15160;DHT22;7680;48.800;9.680;2023-06-14T16:24:17;24.10;58.30
15160;DHT22;7680;48.800;9.680;2023-06-14T16:26:51;24.10;57.70
15160;DHT22;7680;48.800;9.680;2023-06-14T16:29:26;24.10;58.40
15160;DHT22;7680;48.800;9.680;2023-06-14T16:31:59;24.30;59.10
15160;DHT22;7680;48.800;9.680;2023-06-14T16:34:32;24.20;58.00
15160;DHT22;7680;48.800;9.680;2023-06-14T16:37:07;24.10;57.90
15160;DHT22;7680;48.800;9.680;2023-06-14T16:39:41;24.00;58.00